createdAt,value
2018-03-16T00:00:22.869Z,1.6
2018-03-16T00:06:13.606Z,1.84
2018-03-16T00:12:04.280Z,1.46
2018-03-16T00:17:54.993Z,1.98
2018-03-16T00:23:45.684Z,1.32
2018-03-16T00:29:36.351Z,2.06
2018-03-16T00:35:27.074Z,1.75
2018-03-16T00:41:17.769Z,2.36
2018-03-16T00:47:08.484Z,2.72
2018-03-16T00:52:59.189Z,2.81
2018-03-16T00:58:49.884Z,2.74
2018-03-16T01:04:40.599Z,3.52
2018-03-16T01:10:31.285Z,6.45
2018-03-16T01:16:21.997Z,3.49
2018-03-16T01:22:12.670Z,4.21
2018-03-16T01:28:03.429Z,3.39
2018-03-16T01:33:54.117Z,4.09
2018-03-16T01:39:44.782Z,3.65
2018-03-16T01:45:35.505Z,3.05
2018-03-16T01:51:26.186Z,3.49
2018-03-16T01:57:16.903Z,3.61
2018-03-16T02:03:07.638Z,3.38
2018-03-16T02:08:58.319Z,4.73
2018-03-16T02:14:49.001Z,3.14
2018-03-16T02:20:39.756Z,3.6
2018-03-16T02:26:30.475Z,4.45
2018-03-16T02:32:21.132Z,2.99
2018-03-16T02:38:11.789Z,3.2
2018-03-16T02:44:02.517Z,4.07
2018-03-16T02:49:53.184Z,2.92
2018-03-16T02:55:43.905Z,2.21
2018-03-16T03:01:34.581Z,2.25
2018-03-16T03:07:25.282Z,2.25
2018-03-16T03:13:15.982Z,5.13
2018-03-16T03:19:06.753Z,13.91
2018-03-16T03:24:57.380Z,10.56
2018-03-16T03:30:48.106Z,4.7
2018-03-16T03:36:38.773Z,6.8
2018-03-16T03:42:29.469Z,6.2
2018-03-16T03:48:20.179Z,6.85
2018-03-16T03:54:10.867Z,5.14
2018-03-16T04:00:01.650Z,6.58
2018-03-16T04:05:52.358Z,3.92
2018-03-16T04:11:42.958Z,2.57
2018-03-16T04:17:33.702Z,2.9
2018-03-16T04:23:24.423Z,1.89
2018-03-16T04:29:15.072Z,1.71
2018-03-16T04:35:05.779Z,1.64
2018-03-16T04:40:56.434Z,6.61
2018-03-16T04:46:47.147Z,5.3
2018-03-16T04:52:37.843Z,3.5
2018-03-16T04:58:28.539Z,3.15
2018-03-16T05:04:19.244Z,4.96
2018-03-16T05:10:09.955Z,2.69
2018-03-16T05:16:00.655Z,7.74
2018-03-16T05:21:51.378Z,7.99
2018-03-16T05:27:42.045Z,4.43
2018-03-16T05:33:32.709Z,2.43
2018-03-16T05:39:23.482Z,2.88
2018-03-16T05:45:14.192Z,2.97
2018-03-16T05:51:04.834Z,2.8
2018-03-16T05:56:55.552Z,2.57
2018-03-16T06:02:46.228Z,2.42
2018-03-16T06:08:36.927Z,8.49
2018-03-16T06:14:27.611Z,4.88
2018-03-16T06:20:18.346Z,6.42
2018-03-16T06:26:09.075Z,6.37
2018-03-16T06:31:59.724Z,2.93
2018-03-16T06:37:50.452Z,3.66
2018-03-16T06:43:41.099Z,3.35
2018-03-16T06:49:31.846Z,2.94
2018-03-16T06:55:22.507Z,2.75
2018-03-16T07:01:13.225Z,3.45
2018-03-16T07:07:03.958Z,3.09
2018-03-16T07:12:54.662Z,3.03
2018-03-16T07:18:45.328Z,4.18
2018-03-16T07:24:36.029Z,2.84
2018-03-16T07:30:26.729Z,2.95
2018-03-16T07:36:17.450Z,2.73
2018-03-16T07:42:08.142Z,3.32
2018-03-16T07:47:58.833Z,2.67
2018-03-16T07:53:49.557Z,3.26
2018-03-16T07:59:40.211Z,2.85
2018-03-16T08:05:30.897Z,3.24
2018-03-16T08:11:21.600Z,3.58
2018-03-16T08:17:12.341Z,3.36
2018-03-16T08:23:03.002Z,3.2
2018-03-16T08:28:53.686Z,3.74
2018-03-16T08:34:44.407Z,4.35
2018-03-16T08:40:35.112Z,5.08
2018-03-16T08:46:25.819Z,5.41
2018-03-16T08:52:16.484Z,3.5
2018-03-16T08:58:07.195Z,4.14
2018-03-16T09:03:57.886Z,3.64
2018-03-16T09:09:48.597Z,2.97
2018-03-16T09:15:39.320Z,2.22
2018-03-16T09:21:29.988Z,2.25
2018-03-16T09:27:20.684Z,2.96
2018-03-16T09:33:11.391Z,4.62
2018-03-16T09:39:02.119Z,3.79
2018-03-16T09:44:52.792Z,4.5
2018-03-16T09:50:43.502Z,5.79
2018-03-16T09:56:34.179Z,5.28
2018-03-16T10:02:24.900Z,5.05
2018-03-16T10:08:15.610Z,4.41
2018-03-16T10:14:06.386Z,6.99
2018-03-16T10:19:57.027Z,4.92
2018-03-16T10:25:47.727Z,5.34
2018-03-16T10:31:38.435Z,5.5
2018-03-16T10:37:29.183Z,4.81
2018-03-16T10:43:19.942Z,4.43
2018-03-16T10:49:10.554Z,3.69
2018-03-16T10:55:01.310Z,4.2
2018-03-16T11:00:52.012Z,4.04
2018-03-16T11:06:42.673Z,3.06
2018-03-16T11:12:33.361Z,3.47
2018-03-16T11:18:24.075Z,3.98
2018-03-16T11:24:14.803Z,3.77
2018-03-16T11:30:05.522Z,4.05
2018-03-16T11:35:56.225Z,4.56
2018-03-16T11:41:46.910Z,4.99
2018-03-16T11:47:37.624Z,4.59
2018-03-16T11:53:28.326Z,3.32
2018-03-16T11:59:19.063Z,4.03
2018-03-16T12:05:09.786Z,4.43
2018-03-16T12:11:00.501Z,3.7
2018-03-16T12:16:51.250Z,3.84
2018-03-16T12:22:41.913Z,3.16
2018-03-16T12:28:49.434Z,3.16
2018-03-16T12:34:23.375Z,3.45
2018-03-16T12:40:14.101Z,3.25
2018-03-16T12:46:04.845Z,3.31
2018-03-16T12:51:55.511Z,2.53
2018-03-16T12:57:46.257Z,3.01
2018-03-16T13:03:36.976Z,3.66
2018-03-16T13:09:27.664Z,3.07
2018-03-16T13:15:18.406Z,3.01
2018-03-16T13:21:09.163Z,2.6
2018-03-16T13:26:59.817Z,2.36
2018-03-16T13:32:50.522Z,2.47
2018-03-16T13:38:41.242Z,2.8
2018-03-16T13:44:32.027Z,2.61
2018-03-16T13:50:22.668Z,2.22
2018-03-16T13:56:13.404Z,4.02
2018-03-16T14:02:04.133Z,2.78
2018-03-16T14:07:54.848Z,3.05
2018-03-16T14:13:45.651Z,3.31
2018-03-16T14:19:36.278Z,3.46
2018-03-16T14:25:27.055Z,2.15
2018-03-16T14:31:17.707Z,2.18
2018-03-16T14:37:08.473Z,2.71
2018-03-16T14:42:59.199Z,3.63
2018-03-16T14:48:49.954Z,2.71
2018-03-16T14:54:40.602Z,2.22
2018-03-16T15:00:31.399Z,2.75
2018-03-16T15:06:22.137Z,2.39
2018-03-16T15:12:12.829Z,2.79
2018-03-16T15:18:03.556Z,2.66
2018-03-16T15:23:54.281Z,2.78
2018-03-16T15:29:44.991Z,2.59
2018-03-16T15:35:35.797Z,2.64
2018-03-16T15:41:26.445Z,2.48
2018-03-16T15:47:17.177Z,2.57
2018-03-16T15:53:07.927Z,3.26
2018-03-16T15:58:58.645Z,2.93
2018-03-16T16:04:49.360Z,2.66
2018-03-16T16:10:40.077Z,2.86
2018-03-16T16:16:30.840Z,2.41
2018-03-16T16:22:21.592Z,2.94
2018-03-16T16:28:12.262Z,3.14
2018-03-16T16:34:02.989Z,3.24
2018-03-16T16:39:53.727Z,3.36
2018-03-16T16:45:44.454Z,3.29
2018-03-16T16:51:35.146Z,3.31
2018-03-16T16:57:25.878Z,3.93
2018-03-16T17:03:17.184Z,6.46
2018-03-16T17:09:07.277Z,5.5
2018-03-16T17:14:58.018Z,5.67
2018-03-16T17:20:48.726Z,4.94
2018-03-16T17:26:39.466Z,6.26
2018-03-16T17:32:30.211Z,5.39
2018-03-16T17:38:20.900Z,5.32
2018-03-16T17:44:11.586Z,6.61
2018-03-16T17:50:02.387Z,7.72
2018-03-16T17:55:53.026Z,4.83
2018-03-16T18:01:43.709Z,4.17
2018-03-16T18:07:34.423Z,3.62
2018-03-16T18:13:25.144Z,3.55
2018-03-16T18:19:15.847Z,5.24
2018-03-16T18:25:06.557Z,5.61
2018-03-16T18:30:57.296Z,5.87
2018-03-16T18:36:48.003Z,4.64
2018-03-16T18:42:38.726Z,4.28
2018-03-16T18:48:29.461Z,4.77
2018-03-16T18:54:20.153Z,4.31
2018-03-16T19:00:10.928Z,4.47
2018-03-16T19:06:01.630Z,4.37
2018-03-16T19:11:52.330Z,4.83
2018-03-16T19:17:43.049Z,5.72
2018-03-16T19:23:33.842Z,7.24
2018-03-16T19:29:24.475Z,6.58
2018-03-16T19:35:15.227Z,8.68
2018-03-16T19:41:05.953Z,10.46
2018-03-16T19:46:56.723Z,6.6
2018-03-16T19:52:47.414Z,6.61
2018-03-16T19:58:38.122Z,5.84
2018-03-16T20:04:28.838Z,6.14
2018-03-16T20:10:19.521Z,6.82
2018-03-16T20:16:10.291Z,7.45
2018-03-16T20:22:00.984Z,6.91
2018-03-16T20:27:51.690Z,7.44
2018-03-16T20:33:42.404Z,7.18
2018-03-16T20:39:33.138Z,7.73
2018-03-16T20:45:23.803Z,7.26
2018-03-16T20:51:14.556Z,7.12
2018-03-16T20:57:05.282Z,6.9
2018-03-16T21:02:56.027Z,6.55
2018-03-16T21:08:46.675Z,7.49
2018-03-16T21:14:37.450Z,7.57
2018-03-16T21:20:28.095Z,6.75
2018-03-16T21:26:18.850Z,6.73
2018-03-16T21:32:09.574Z,5.46
2018-03-16T21:38:00.286Z,5.85
2018-03-16T21:43:50.981Z,6.74
2018-03-16T21:49:41.688Z,5.84
2018-03-16T21:55:32.398Z,5.56
2018-03-16T22:01:23.131Z,5.41
2018-03-16T22:07:13.787Z,6.12
2018-03-16T22:13:04.531Z,5.8
2018-03-16T22:18:55.269Z,5.37
2018-03-16T22:24:45.945Z,4.91
2018-03-16T22:30:36.650Z,4.59
2018-03-16T22:36:27.357Z,4.99
2018-03-16T22:42:18.082Z,5.57
2018-03-16T22:48:08.793Z,4.95
2018-03-16T22:53:59.484Z,6.32
2018-03-16T22:59:50.216Z,5.18
2018-03-16T23:05:40.941Z,5.54
2018-03-16T23:11:31.629Z,6.7
2018-03-16T23:17:22.370Z,6.02
2018-03-16T23:23:13.052Z,6.99
2018-03-16T23:29:03.768Z,6.32
2018-03-16T23:34:54.472Z,6.68
2018-03-16T23:40:45.201Z,6.65
2018-03-16T23:46:35.897Z,6.11
2018-03-16T23:52:26.616Z,10.62
2018-03-16T23:58:17.310Z,5.99
